Time;durP1;ratioP1;P1;durP2;ratioP2;P2;SDS_P1;SDS_P2;PMS_P1;PMS_P2;Temp;Humidity;BMP_temperature;BMP_pressure;BME280_temperature;BME280_humidity;BME280_pressure;Samples;Min_cycle;Max_cycle;Signal;HPM_P1;HPM_P2
2022/03/31 00:02:19;;;;;;;20.27;5.15;;;19.50;84.50;;;;;;5135256;27;20031;-71
2022/03/31 00:04:46;;;;;;;15.57;4.97;;;19.50;85.60;;;;;;5116998;27;20034;-70
2022/03/31 00:07:13;;;;;;;13.82;4.28;;;19.60;85.60;;;;;;5116870;27;20031;-70
2022/03/31 00:09:40;;;;;;;12.70;4.90;;;19.60;85.70;;;;;;5135036;27;20023;-71
2022/03/31 00:12:09;;;;;;;12.63;4.50;;;19.60;86.00;;;;;;5134682;27;20114;-71
2022/03/31 00:14:36;;;;;;;17.15;5.57;;;19.60;85.00;;;;;;5135556;27;20039;-71
2022/03/31 00:17:03;;;;;;;14.45;4.35;;;19.60;86.40;;;;;;5134804;27;20027;-70
2022/03/31 00:19:31;;;;;;;18.45;5.05;;;19.50;85.70;;;;;;5135322;27;20051;-71
2022/03/31 00:21:58;;;;;;;10.13;3.67;;;19.60;86.10;;;;;;5134622;27;20076;-70
2022/03/31 00:24:25;;;;;;;11.75;4.10;;;19.50;85.90;;;;;;5134843;27;20027;-71
2022/03/31 00:26:53;;;;;;;12.50;4.15;;;19.50;86.40;;;;;;5099594;27;20106;-71
2022/03/31 00:29:20;;;;;;;11.15;4.40;;;19.40;86.40;;;;;;5134494;27;20038;-71
2022/03/31 00:31:48;;;;;;;14.63;4.95;;;19.40;86.70;;;;;;5116066;27;20054;-71
2022/03/31 00:34:15;;;;;;;17.73;5.32;;;19.40;87.10;;;;;;5134699;27;20494;-71
2022/03/31 00:36:42;;;;;;;14.98;4.70;;;19.30;87.00;;;;;;5116445;27;20473;-71
2022/03/31 00:41:54;;;;;;;14.35;4.60;;;19.50;87.40;;;;;;5134349;27;20039;-71
2022/03/31 00:44:22;;;;;;;19.60;5.55;;;19.50;86.50;;;;;;5115883;27;20034;-71
2022/03/31 00:46:50;;;;;;;15.93;4.47;;;19.60;86.60;;;;;;5115894;27;20035;-71
2022/03/31 00:49:18;;;;;;;17.80;5.32;;;19.60;86.30;;;;;;5115995;27;20028;-71
2022/03/31 00:51:45;;;;;;;16.08;4.70;;;19.70;86.50;;;;;;5115274;27;20035;-71
2022/03/31 00:54:12;;;;;;;11.27;4.30;;;19.70;85.90;;;;;;5115955;27;20091;-70
2022/03/31 00:56:40;;;;;;;12.90;3.97;;;19.70;85.70;;;;;;5099477;27;20358;-71
2022/03/31 00:59:08;;;;;;;15.35;4.07;;;19.80;85.60;;;;;;5116174;27;20385;-72
2022/03/31 01:01:36;;;;;;;14.35;3.38;;;19.70;86.60;;;;;;5115282;27;20302;-72
2022/03/31 01:04:03;;;;;;;11.57;3.65;;;19.60;86.30;;;;;;5115788;27;20488;-72
2022/03/31 01:06:30;;;;;;;13.77;4.30;;;19.50;86.40;;;;;;5098379;27;20473;-72
2022/03/31 01:08:57;;;;;;;11.00;3.80;;;19.50;86.90;;;;;;5133846;27;20119;-72
2022/03/31 01:11:25;;;;;;;9.70;3.20;;;19.40;87.60;;;;;;5115767;27;20042;-72
2022/03/31 01:13:53;;;;;;;13.55;4.18;;;19.30;87.90;;;;;;5133610;27;20031;-72
2022/03/31 01:16:21;;;;;;;14.23;5.03;;;19.30;89.30;;;;;;5133574;27;20031;-72
2022/03/31 01:18:51;;;;;;;13.63;3.50;;;19.20;90.20;;;;;;5115577;27;20054;-72
2022/03/31 01:21:18;;;;;;;11.43;4.68;;;19.20;90.90;;;;;;5134071;27;20031;-72
2022/03/31 01:23:46;;;;;;;15.82;4.82;;;19.20;91.30;;;;;;5115682;27;20082;-72
2022/03/31 01:26:13;;;;;;;12.93;4.38;;;19.10;91.70;;;;;;5115358;27;20055;-70
2022/03/31 01:28:42;;;;;;;12.43;4.20;;;19.10;91.50;;;;;;5115271;27;20058;-72
2022/03/31 01:31:10;;;;;;;17.77;5.60;;;19.10;92.00;;;;;;5115309;27;20031;-72
2022/03/31 01:33:37;;;;;;;22.25;5.88;;;19.10;92.40;;;;;;5115387;27;20120;-72
2022/03/31 01:36:07;;;;;;;16.80;4.63;;;19.20;92.50;;;;;;5133765;27;20019;-69
2022/03/31 01:38:34;;;;;;;19.15;5.13;;;19.20;92.50;;;;;;5115272;27;20100;-71
2022/03/31 01:41:01;;;;;;;21.48;5.32;;;19.30;92.50;;;;;;5133636;27;20053;-71
2022/03/31 01:43:28;;;;;;;27.60;5.80;;;19.30;93.40;;;;;;5133506;27;20027;-71
2022/03/31 01:45:56;;;;;;;20.48;5.40;;;19.30;93.60;;;;;;5114925;27;20106;-72
2022/03/31 01:48:23;;;;;;;33.42;7.05;;;19.30;93.60;;;;;;5115158;27;20023;-70
2022/03/31 01:50:50;;;;;;;34.60;6.32;;;19.30;94.80;;;;;;5098188;27;20114;-70
2022/03/31 01:53:21;;;;;;;29.48;6.78;;;19.20;95.10;;;;;;5133144;27;20042;-71
2022/03/31 01:55:47;;;;;;;;;;;19.00;95.70;;;;;;5099596;27;20033;-71
2022/03/31 01:58:14;;;;;;;26.75;5.82;;;18.90;95.90;;;;;;5115166;27;19982;-71
2022/03/31 02:00:42;;;;;;;27.70;6.60;;;18.90;96.40;;;;;;5115241;27;20057;-72
2022/03/31 02:03:09;;;;;;;26.65;6.03;;;18.90;96.50;;;;;;5114920;27;20031;-73
2022/03/31 02:05:36;;;;;;;37.60;6.13;;;18.80;96.60;;;;;;5132906;27;20091;-73
2022/03/31 02:08:03;;;;;;;30.92;5.68;;;18.80;96.60;;;;;;5132957;27;20023;-75
2022/03/31 02:10:31;;;;;;;39.72;6.47;;;18.70;96.70;;;;;;5132926;27;20039;-75
2022/03/31 02:12:58;;;;;;;32.47;5.90;;;18.70;96.90;;;;;;5097399;27;20493;-77
2022/03/31 02:15:26;;;;;;;38.50;6.68;;;18.60;96.60;;;;;;5132786;27;20031;-76
2022/03/31 02:17:54;;;;;;;39.78;7.28;;;18.50;96.60;;;;;;5114503;27;20031;-76
2022/03/31 02:20:22;;;;;;;36.10;6.43;;;18.40;96.70;;;;;;5114805;27;20023;-73
2022/03/31 02:22:49;;;;;;;35.83;6.25;;;18.30;95.60;;;;;;5114509;27;20086;-72
2022/03/31 02:25:17;;;;;;;28.88;5.70;;;18.20;94.70;;;;;;5114345;27;20028;-73
2022/03/31 02:27:44;;;;;;;27.85;5.82;;;18.20;94.70;;;;;;5132679;27;20023;-74
2022/03/31 02:30:11;;;;;;;31.27;6.43;;;18.30;94.70;;;;;;5114507;27;20031;-73
2022/03/31 02:32:38;;;;;;;32.00;6.22;;;18.40;94.30;;;;;;5132294;27;20039;-72
2022/03/31 02:35:07;;;;;;;34.75;5.93;;;18.50;94.40;;;;;;5132520;27;20115;-72
2022/03/31 02:37:34;;;;;;;28.50;5.63;;;18.60;94.70;;;;;;5132286;27;20032;-72
2022/03/31 02:40:02;;;;;;;30.95;5.47;;;18.70;93.80;;;;;;5114421;27;20458;-71
2022/03/31 02:42:30;;;;;;;28.73;5.82;;;18.80;92.20;;;;;;5114260;27;20481;-71
2022/03/31 02:44:57;;;;;;;28.65;5.00;;;19.00;91.30;;;;;;5132219;27;20027;-72
2022/03/31 02:47:25;;;;;;;27.23;4.93;;;19.20;90.50;;;;;;5113963;27;20043;-71
2022/03/31 02:49:52;;;;;;;30.02;5.47;;;19.30;90.00;;;;;;5132444;27;20023;-71
2022/03/31 02:52:19;;;;;;;22.05;4.88;;;19.30;90.10;;;;;;5132029;27;20050;-71
2022/03/31 02:57:31;;;;;;;21.80;5.47;;;19.20;90.70;;;;;;5132024;27;20449;-70
2022/03/31 02:59:58;;;;;;;27.27;4.65;;;19.10;90.80;;;;;;5131908;27;20459;-70
2022/03/31 03:02:26;;;;;;;27.10;4.93;;;19.10;90.70;;;;;;5131923;27;20399;-70
2022/03/31 03:04:53;;;;;;;45.08;8.10;;;19.10;89.90;;;;;;5096944;27;20459;-70
2022/03/31 03:07:20;;;;;;;31.13;6.05;;;19.20;90.90;;;;;;5132031;27;20393;-70
2022/03/31 03:09:47;;;;;;;47.28;7.13;;;19.20;90.90;;;;;;5131791;27;20033;-70
2022/03/31 03:12:14;;;;;;;37.65;6.97;;;19.10;91.40;;;;;;5131641;27;20092;-70
2022/03/31 03:14:42;;;;;;;39.25;7.03;;;19.00;92.30;;;;;;5132158;27;20038;-70
2022/03/31 03:17:10;;;;;;;36.25;5.85;;;19.00;91.80;;;;;;5131700;27;20031;-70
2022/03/31 03:19:37;;;;;;;40.63;5.97;;;19.00;91.40;;;;;;5124953;27;20035;-69
2022/03/31 03:22:05;;;;;;;34.38;5.80;;;19.10;91.40;;;;;;5113897;28;20036;-69
2022/03/31 03:24:32;;;;;;;33.95;5.30;;;19.10;89.90;;;;;;5109857;28;20031;-70
2022/03/31 03:26:59;;;;;;;40.67;6.60;;;19.30;86.70;;;;;;5118265;28;20052;-69
2022/03/31 03:29:27;;;;;;;40.28;6.97;;;19.30;88.00;;;;;;5110473;28;20039;-70
2022/03/31 03:31:54;;;;;;;30.33;5.53;;;19.30;87.60;;;;;;5131506;28;20043;-68
2022/03/31 03:34:21;;;;;;;28.50;5.82;;;19.30;84.50;;;;;;5094494;28;20088;-69
2022/03/31 03:36:48;;;;;;;30.92;4.78;;;19.30;85.40;;;;;;5110856;28;20082;-69
2022/03/31 03:39:15;;;;;;;30.52;5.25;;;19.50;83.40;;;;;;5110359;28;20389;-68
2022/03/31 03:41:45;;;;;;;35.65;5.72;;;19.60;82.90;;;;;;5108638;28;20042;-70
2022/03/31 03:44:12;;;;;;;29.17;5.25;;;19.70;83.60;;;;;;5113007;28;20039;-69
2022/03/31 03:46:39;;;;;;;24.95;4.20;;;19.70;79.90;;;;;;5109896;28;20027;-67
2022/03/31 03:49:06;;;;;;;28.80;4.38;;;19.80;77.70;;;;;;5095337;28;20035;-67
2022/03/31 03:51:34;;;;;;;25.45;4.10;;;19.90;78.10;;;;;;5112255;28;20032;-67
2022/03/31 03:54:03;;;;;;;27.63;5.05;;;19.90;78.70;;;;;;5115356;27;20074;-67
2022/03/31 03:56:30;;;;;;;22.80;5.28;;;19.90;80.40;;;;;;5109243;28;20397;-68
2022/03/31 03:58:57;;;;;;;27.08;4.72;;;19.90;81.00;;;;;;5109783;28;20093;-67
2022/03/31 04:01:24;;;;;;;25.10;4.57;;;19.90;81.20;;;;;;5109813;28;20040;-68
2022/03/31 04:03:51;;;;;;;22.23;4.18;;;19.90;80.00;;;;;;5096011;28;20031;-68
2022/03/31 04:06:18;;;;;;;32.15;6.05;;;20.00;79.30;;;;;;5122397;28;20496;-67
2022/03/31 04:08:46;;;;;;;27.42;5.10;;;20.00;80.50;;;;;;5110089;28;20108;-67
2022/03/31 04:11:14;;;;;;;23.58;4.50;;;20.00;81.40;;;;;;5109116;28;20500;-68
2022/03/31 04:13:42;;;;;;;23.05;3.90;;;19.40;84.50;;;;;;5110348;28;20039;-67
2022/03/31 04:16:09;;;;;;;30.00;4.15;;;19.00;85.40;;;;;;5106413;28;20445;-71
2022/03/31 04:18:36;;;;;;;26.73;4.32;;;18.80;87.70;;;;;;5120221;28;20039;-71
2022/03/31 04:21:03;;;;;;;32.88;4.95;;;18.70;89.10;;;;;;5110919;28;20122;-70
2022/03/31 04:23:31;;;;;;;31.50;4.85;;;18.60;89.30;;;;;;5091664;28;20438;-70
2022/03/31 04:25:58;;;;;;;30.52;5.53;;;18.70;89.70;;;;;;5111932;28;20343;-71
2022/03/31 04:28:26;;;;;;;35.05;5.65;;;18.70;90.10;;;;;;5120622;28;20156;-70
2022/03/31 04:30:54;;;;;;;42.47;7.43;;;18.70;91.30;;;;;;5110042;28;20122;-71
2022/03/31 04:33:21;;;;;;;34.25;5.38;;;18.60;90.70;;;;;;5110111;28;20088;-71
2022/03/31 04:35:48;;;;;;;39.03;6.20;;;18.60;91.50;;;;;;5092270;28;20106;-70
2022/03/31 04:38:16;;;;;;;38.63;5.80;;;18.70;90.20;;;;;;5101600;27;20037;-68
2022/03/31 04:40:43;;;;;;;33.25;4.82;;;18.70;86.90;;;;;;5125068;27;21320;-71
2022/03/31 04:43:10;;;;;;;26.45;4.65;;;18.90;85.40;;;;;;5115289;27;20028;-68
2022/03/31 04:45:38;;;;;;;21.08;4.25;;;19.00;81.90;;;;;;5117084;27;20035;-71
2022/03/31 04:48:05;;;;;;;24.63;4.30;;;19.20;79.80;;;;;;5115326;27;20031;-70
2022/03/31 04:50:32;;;;;;;22.08;4.25;;;19.30;80.10;;;;;;5114855;27;20036;-71
2022/03/31 04:53:00;;;;;;;23.13;4.03;;;19.40;78.30;;;;;;5099970;27;20042;-70
2022/03/31 04:55:27;;;;;;;22.35;3.83;;;19.50;80.70;;;;;;5115165;27;20031;-71
2022/03/31 04:57:54;;;;;;;23.95;4.20;;;19.50;78.50;;;;;;5127672;27;20398;-68
2022/03/31 05:00:21;;;;;;;23.25;4.28;;;19.60;78.60;;;;;;5115491;27;20609;-68
2022/03/31 05:02:49;;;;;;;26.63;4.97;;;19.60;80.70;;;;;;5113508;28;20054;-69
2022/03/31 05:05:16;;;;;;;17.73;3.90;;;19.70;79.20;;;;;;5113555;28;20172;-69
2022/03/31 05:07:43;;;;;;;22.10;4.07;;;19.70;78.30;;;;;;5112753;27;20081;-68
2022/03/31 05:10:11;;;;;;;28.55;4.70;;;19.70;76.50;;;;;;5115185;27;20042;-69
2022/03/31 05:12:38;;;;;;;25.30;4.13;;;19.60;78.80;;;;;;5113298;27;20073;-69
2022/03/31 05:15:06;;;;;;;23.65;3.75;;;19.60;80.10;;;;;;5090839;27;20480;-69
2022/03/31 05:17:36;;;;;;;26.75;4.63;;;19.60;80.30;;;;;;5130226;27;20292;-69
2022/03/31 05:20:06;;;;;;;;;;;19.50;81.10;;;;;;5120676;27;20176;-68
2022/03/31 05:22:35;;;;;;;19.67;3.83;;;19.60;79.70;;;;;;5115587;27;19999;-68
2022/03/31 05:25:02;;;;;;;25.10;3.88;;;19.60;78.80;;;;;;5131124;27;20358;-69
2022/03/31 05:27:30;;;;;;;18.98;3.97;;;19.60;79.20;;;;;;5113866;27;20032;-68
2022/03/31 05:29:57;;;;;;;22.58;4.10;;;19.60;77.10;;;;;;5132422;27;20364;-66
2022/03/31 05:32:25;;;;;;;24.35;3.97;;;19.70;78.70;;;;;;5112762;27;20047;-69
2022/03/31 05:34:52;;;;;;;22.52;3.45;;;19.30;81.40;;;;;;5124506;27;20058;-69
2022/03/31 05:37:21;;;;;;;22.52;4.40;;;19.10;80.40;;;;;;5113183;27;20031;-69
2022/03/31 05:39:48;;;;;;;26.17;5.30;;;19.00;83.50;;;;;;5113916;27;20033;-71
2022/03/31 05:42:15;;;;;;;22.15;4.78;;;18.80;84.80;;;;;;5123153;27;20127;-70
2022/03/31 06:17:32;;;;;;;27.70;4.60;;;17.60;92.20;;;;;;5122412;27;20066;-70
2022/03/31 06:19:59;;;;;;;28.00;4.22;;;17.10;92.90;;;;;;5059227;28;20053;-68
2022/03/31 06:22:26;;;;;;;22.48;2.97;;;17.00;93.70;;;;;;5051365;28;20037;-68
2022/03/31 06:24:54;;;;;;;22.20;3.42;;;17.00;94.00;;;;;;5048063;28;20111;-68
2022/03/31 06:27:21;;;;;;;24.63;4.07;;;17.00;93.80;;;;;;5037392;28;20033;-67
2022/03/31 06:29:49;;;;;;;21.65;3.05;;;16.90;93.70;;;;;;5031565;28;20037;-68
2022/03/31 06:32:16;;;;;;;27.17;3.35;;;16.90;94.00;;;;;;5050554;28;20057;-71
2022/03/31 06:34:43;;;;;;;24.90;3.75;;;16.90;94.00;;;;;;5029336;28;20032;-69
2022/03/31 06:37:11;;;;;;;24.55;3.75;;;16.90;94.30;;;;;;5029523;28;20029;-70
2022/03/31 06:39:38;;;;;;;27.83;3.70;;;16.80;94.70;;;;;;5034463;28;20039;-69
2022/03/31 06:42:06;;;;;;;26.00;3.88;;;16.70;93.80;;;;;;5039141;28;20040;-68
2022/03/31 06:44:33;;;;;;;26.95;3.45;;;16.60;93.60;;;;;;5053064;28;20411;-70
2022/03/31 06:47:00;;;;;;;23.90;4.10;;;16.60;94.10;;;;;;5052473;28;20529;-69
2022/03/31 06:49:27;;;;;;;20.38;3.53;;;16.50;93.20;;;;;;5071038;28;20040;-69
2022/03/31 06:51:55;;;;;;;29.35;4.63;;;16.50;94.00;;;;;;5070489;28;20106;-72
2022/03/31 06:54:22;;;;;;;21.67;4.13;;;16.50;94.40;;;;;;5032631;28;20112;-69
2022/03/31 06:56:51;;;;;;;32.35;4.70;;;16.60;94.80;;;;;;5031600;28;20691;-69
2022/03/31 06:59:21;;;;;;;27.75;3.70;;;16.70;94.20;;;;;;5065499;28;20545;-69
2022/03/31 07:01:48;;;;;;;33.55;5.35;;;16.60;93.90;;;;;;5023918;28;20033;-67
2022/03/31 07:04:16;;;;;;;34.67;4.80;;;16.70;93.70;;;;;;5030727;28;20029;-69
2022/03/31 07:06:43;;;;;;;32.70;4.85;;;16.70;92.40;;;;;;5030624;28;20120;-67
2022/03/31 07:09:10;;;;;;;29.77;4.50;;;16.70;90.90;;;;;;5030599;28;20113;-69
2022/03/31 07:11:38;;;;;;;28.10;4.15;;;16.90;88.70;;;;;;5046265;28;20045;-69
2022/03/31 07:14:05;;;;;;;23.58;3.83;;;17.00;87.30;;;;;;5032265;28;20029;-69
2022/03/31 07:16:32;;;;;;;25.13;4.35;;;17.20;87.90;;;;;;5051089;28;20033;-69
2022/03/31 07:19:03;;;;;;;26.08;4.05;;;17.20;87.40;;;;;;5044267;28;20048;-69
2022/03/31 07:21:30;;;;;;;26.17;3.95;;;17.30;86.70;;;;;;5053098;28;20119;-67
2022/03/31 07:23:57;;;;;;;25.63;4.70;;;17.30;84.20;;;;;;5035940;28;20035;-68
2022/03/31 07:26:24;;;;;;;28.13;4.63;;;17.50;82.00;;;;;;5052978;28;20100;-70
2022/03/31 07:28:52;;;;;;;20.67;3.72;;;17.70;82.40;;;;;;5033656;28;20099;-71
2022/03/31 07:31:19;;;;;;;26.20;3.83;;;17.70;83.20;;;;;;5032694;28;20071;-69
2022/03/31 07:33:46;;;;;;;24.10;3.63;;;17.80;81.40;;;;;;5032750;28;20445;-69
2022/03/31 07:36:13;;;;;;;24.38;4.40;;;17.80;81.00;;;;;;5033647;28;20060;-69
2022/03/31 07:38:41;;;;;;;20.35;4.22;;;17.90;80.10;;;;;;5032738;28;20029;-69
2022/03/31 07:41:09;;;;;;;19.35;3.75;;;17.90;79.40;;;;;;5050439;28;20506;-67
2022/03/31 07:43:36;;;;;;;18.83;3.15;;;18.00;77.80;;;;;;5019266;28;20127;-67
2022/03/31 07:46:03;;;;;;;26.50;4.00;;;18.00;75.90;;;;;;5050841;28;20314;-67
2022/03/31 07:48:30;;;;;;;24.55;3.65;;;18.10;75.40;;;;;;5050135;28;20476;-67
2022/03/31 07:50:59;;;;;;;21.17;3.53;;;18.20;77.20;;;;;;5050461;28;20127;-68
2022/03/31 07:53:38;;;;;;;24.63;3.47;;;18.00;77.50;;;;;;5048494;28;20071;-67
2022/03/31 07:56:06;;;;;;;28.65;4.57;;;18.00;77.40;;;;;;5049183;28;20117;-69
2022/03/31 07:58:33;;;;;;;22.80;3.90;;;18.00;76.20;;;;;;5069090;28;20090;-68
2022/03/31 08:01:00;;;;;;;28.85;4.68;;;18.00;74.20;;;;;;5069981;28;20041;-66
2022/03/31 08:03:28;;;;;;;29.85;4.88;;;18.10;75.20;;;;;;5050427;28;20119;-68
2022/03/31 08:05:55;;;;;;;23.48;4.90;;;18.10;76.10;;;;;;5057369;28;20518;-68
2022/03/31 08:08:22;;;;;;;24.25;4.30;;;18.10;75.30;;;;;;5046687;28;20033;-68
2022/03/31 08:10:50;;;;;;;25.63;3.88;;;18.00;74.20;;;;;;5063099;28;20036;-69
2022/03/31 08:13:26;;;;;;;22.55;3.97;;;18.10;73.50;;;;;;5050038;28;20036;-69
2022/03/31 08:15:53;;;;;;;19.15;3.83;;;18.10;74.50;;;;;;5030811;28;20112;-68
2022/03/31 08:18:27;;;;;;;19.23;4.07;;;18.10;73.10;;;;;;5031977;28;20037;-68
2022/03/31 08:20:57;;;;;;;16.95;3.55;;;18.10;76.80;;;;;;5034049;28;20119;-70
2022/03/31 08:23:25;;;;;;;18.40;3.78;;;18.10;71.30;;;;;;5072187;28;20032;-72
2022/03/31 08:25:53;;;;;;;19.60;3.35;;;18.10;70.90;;;;;;5052179;28;20171;-68
2022/03/31 08:28:20;;;;;;;25.55;3.70;;;18.20;70.60;;;;;;5051300;28;20029;-70
2022/03/31 08:30:48;;;;;;;19.48;3.85;;;18.10;70.20;;;;;;5053636;28;20028;-71
2022/03/31 08:33:15;;;;;;;20.95;2.85;;;18.10;71.30;;;;;;5051737;28;20040;-69
2022/03/31 08:35:42;;;;;;;17.13;3.47;;;18.10;70.30;;;;;;5049534;28;20462;-69
2022/03/31 08:38:09;;;;;;;12.45;2.85;;;18.10;70.80;;;;;;5047406;28;20037;-69
2022/03/31 09:32:55;;;;;;;15.93;3.17;;;18.30;70.40;;;;;;5124636;27;20632;-72
2022/03/31 09:35:23;;;;;;;17.27;3.22;;;18.20;73.50;;;;;;5097967;27;20043;-69
2022/03/31 09:37:54;;;;;;;21.85;4.00;;;18.10;74.60;;;;;;5114351;27;20027;-70
2022/03/31 09:40:21;;;;;;;17.00;4.18;;;18.10;76.90;;;;;;5095264;28;20032;-69
2022/03/31 09:42:59;;;;;;;20.42;3.88;;;18.00;77.10;;;;;;5094741;28;20020;-71
2022/03/31 09:45:36;;;;;;;21.23;3.33;;;18.00;75.90;;;;;;5113620;28;20084;-71
2022/03/31 09:48:03;;;;;;;23.25;3.28;;;18.00;76.60;;;;;;5112089;27;20035;-72
2022/03/31 09:50:34;;;;;;;18.48;3.78;;;18.00;76.10;;;;;;5132646;27;20035;-71
2022/03/31 09:53:02;;;;;;;23.13;3.92;;;18.10;73.80;;;;;;5115006;27;21439;-72
2022/03/31 09:55:29;;;;;;;18.45;3.63;;;18.10;73.50;;;;;;5114537;27;20035;-71
2022/03/31 09:57:57;;;;;;;23.35;3.80;;;18.10;72.90;;;;;;5098317;27;20035;-72
2022/03/31 10:00:25;;;;;;;14.65;3.35;;;18.10;71.00;;;;;;5115078;27;20038;-72
2022/03/31 10:02:53;;;;;;;19.02;3.50;;;18.10;71.70;;;;;;5114746;27;20084;-70
2022/03/31 10:05:20;;;;;;;18.90;3.42;;;18.00;72.30;;;;;;5098524;27;20027;-70
2022/03/31 10:07:48;;;;;;;20.88;3.58;;;18.00;72.30;;;;;;5093191;27;20580;-70
2022/03/31 10:10:15;;;;;;;19.10;3.50;;;18.00;72.80;;;;;;5110346;27;20019;-71
2022/03/31 10:12:59;;;;;;;25.75;3.85;;;18.00;73.40;;;;;;5152986;27;20473;-71
2022/03/31 10:15:35;;;;;;;15.27;3.00;;;18.00;74.20;;;;;;5118771;27;20027;-71
2022/03/31 10:18:04;;;;;;;21.23;3.75;;;18.00;73.40;;;;;;5153228;27;20026;-71
2022/03/31 10:20:31;;;;;;;19.20;3.15;;;18.00;72.90;;;;;;5134870;27;20579;-71
2022/03/31 10:25:48;;;;;;;20.10;3.13;;;18.00;71.00;;;;;;5125317;27;20078;-73
2022/03/31 10:28:23;;;;;;;16.25;2.92;;;18.20;68.30;;;;;;5134349;27;20388;-69
2022/03/31 10:31:04;;;;;;;12.63;2.47;;;18.30;65.90;;;;;;5124999;27;20032;-70
2022/03/31 10:33:44;;;;;;;10.57;2.42;;;18.30;68.20;;;;;;5132458;27;20043;-71
2022/03/31 10:36:13;;;;;;;18.15;3.35;;;18.20;67.30;;;;;;5131804;27;20059;-69
2022/03/31 10:38:53;;;;;;;17.58;3.17;;;18.10;70.70;;;;;;5132337;27;20120;-70
2022/03/31 10:41:25;;;;;;;15.60;3.67;;;18.00;73.20;;;;;;5097886;27;20443;-72
2022/03/31 10:43:56;;;;;;;20.67;4.05;;;17.90;75.00;;;;;;5114264;27;20503;-72
2022/03/31 10:46:24;;;;;;;22.95;3.40;;;17.80;76.40;;;;;;5132683;27;20110;-71
2022/03/31 10:48:55;;;;;;;20.25;3.40;;;17.70;76.30;;;;;;5132608;27;20024;-71
2022/03/31 10:51:33;;;;;;;16.65;3.20;;;17.70;77.00;;;;;;5129162;27;20115;-72
2022/03/31 10:54:00;;;;;;;13.27;3.35;;;17.60;77.00;;;;;;5102450;27;20100;-70
2022/03/31 10:56:29;;;;;;;14.00;3.15;;;17.60;77.50;;;;;;5110926;27;20066;-70
2022/03/31 10:58:58;;;;;;;17.90;3.67;;;17.50;77.70;;;;;;5096566;27;20038;-70
2022/03/31 11:01:28;;;;;;;24.13;4.28;;;17.50;77.10;;;;;;5091505;28;20027;-70
2022/03/31 11:04:07;;;;;;;15.52;2.97;;;17.50;77.60;;;;;;5093538;28;20032;-71
2022/03/31 11:06:46;;;;;;;23.02;2.85;;;17.50;77.50;;;;;;5093540;28;20466;-73
2022/03/31 11:09:32;;;;;;;19.00;3.05;;;17.40;77.10;;;;;;5100227;27;20140;-70
2022/03/31 11:12:00;;;;;;;15.38;3.30;;;17.40;78.30;;;;;;5106790;27;20027;-72
2022/03/31 11:14:27;;;;;;;20.90;3.58;;;17.40;77.50;;;;;;5115556;27;20050;-73
2022/03/31 11:16:55;;;;;;;14.45;3.40;;;17.40;78.00;;;;;;5101993;27;20019;-73
2022/03/31 11:19:22;;;;;;;17.42;3.25;;;17.40;78.30;;;;;;5111480;27;20421;-73
2022/03/31 11:21:49;;;;;;;13.85;2.92;;;17.40;78.20;;;;;;5126180;27;20114;-74
2022/03/31 11:24:24;;;;;;;20.52;3.47;;;17.30;77.90;;;;;;5111557;28;20042;-73
2022/03/31 11:26:54;;;;;;;16.05;3.20;;;17.30;78.50;;;;;;5111145;28;20023;-73
2022/03/31 11:29:24;;;;;;;16.73;3.33;;;17.30;78.60;;;;;;5108841;28;20385;-75
2022/03/31 11:31:52;;;;;;;21.15;3.65;;;17.30;78.90;;;;;;5127923;28;20084;-71
2022/03/31 11:34:29;;;;;;;25.88;4.40;;;17.30;79.60;;;;;;5105502;28;20023;-73
2022/03/31 11:36:57;;;;;;;27.92;4.55;;;17.30;79.10;;;;;;5127726;27;20031;-73
2022/03/31 11:39:28;;;;;;;19.95;3.63;;;17.30;79.60;;;;;;5093824;28;20441;-75
2022/03/31 11:41:55;;;;;;;17.13;3.60;;;17.30;79.60;;;;;;5111331;28;20625;-74
2022/03/31 11:44:24;;;;;;;22.95;4.60;;;17.30;79.50;;;;;;5109362;28;20059;-73
2022/03/31 11:46:52;;;;;;;18.08;3.35;;;17.30;79.80;;;;;;5096684;27;20044;-74
2022/03/31 11:49:20;;;;;;;19.48;3.92;;;17.30;79.60;;;;;;5134301;27;20021;-73
2022/03/31 11:51:58;;;;;;;19.45;3.28;;;17.30;80.00;;;;;;5113724;27;20078;-74
2022/03/31 11:54:26;;;;;;;21.52;3.30;;;17.30;80.20;;;;;;5107519;27;20188;-73
2022/03/31 11:57:08;;;;;;;15.35;3.30;;;17.30;79.80;;;;;;5102907;27;20464;-74
2022/03/31 11:59:35;;;;;;;14.75;2.95;;;17.30;79.90;;;;;;5130997;27;20601;-73
2022/03/31 12:02:13;;;;;;;30.50;4.15;;;17.30;79.70;;;;;;5134595;27;20065;-73
2022/03/31 12:04:42;;;;;;;22.70;4.05;;;17.20;80.90;;;;;;5102351;27;20064;-73
2022/03/31 12:07:10;;;;;;;17.02;3.40;;;17.20;81.10;;;;;;5125687;27;20397;-73
2022/03/31 12:09:41;;;;;;;17.02;2.95;;;17.10;81.70;;;;;;5106872;27;20481;-73
2022/03/31 12:12:15;;;;;;;12.20;2.83;;;17.10;81.40;;;;;;5143606;27;20035;-73
2022/03/31 12:14:53;;;;;;;21.00;2.95;;;17.00;81.40;;;;;;5104396;27;20055;-73
2022/03/31 12:17:21;;;;;;;15.43;2.72;;;17.00;81.20;;;;;;5124009;27;20037;-73
2022/03/31 12:19:48;;;;;;;15.95;2.88;;;17.00;82.00;;;;;;5109210;27;20034;-73
2022/03/31 12:22:15;;;;;;;13.65;2.65;;;16.90;82.50;;;;;;5131909;27;20038;-73
2022/03/31 12:24:49;;;;;;;23.55;2.90;;;16.90;83.50;;;;;;5113909;27;20038;-73
2022/03/31 12:27:17;;;;;;;16.40;3.55;;;16.80;83.70;;;;;;5091019;28;20032;-73
2022/03/31 12:29:44;;;;;;;13.15;2.75;;;16.70;82.70;;;;;;5113313;27;20023;-73
2022/03/31 12:32:13;;;;;;;11.50;2.70;;;16.80;83.00;;;;;;5098973;27;20042;-73
2022/03/31 12:34:54;;;;;;;14.32;2.53;;;16.70;82.70;;;;;;5098868;27;20062;-73
2022/03/31 12:37:49;;;;;;;17.60;2.88;;;16.70;82.90;;;;;;5101210;27;20038;-73
2022/03/31 12:40:17;;;;;;;15.25;2.92;;;16.80;82.50;;;;;;5124439;27;20413;-73
2022/03/31 12:42:58;;;;;;;9.95;3.20;;;16.80;82.80;;;;;;5096146;28;20036;-73
2022/03/31 12:45:28;;;;;;;17.13;3.08;;;16.80;81.20;;;;;;5081134;27;20031;-71
2022/03/31 12:47:55;;;;;;;14.00;2.97;;;16.80;81.30;;;;;;5116013;27;20046;-73
2022/03/31 12:50:27;;;;;;;13.93;3.00;;;16.80;82.00;;;;;;5134587;27;20076;-73
2022/03/31 12:53:02;;;;;;;17.15;3.00;;;16.90;81.60;;;;;;5119248;27;20134;-73
2022/03/31 12:55:34;;;;;;;18.20;2.75;;;16.80;81.00;;;;;;5079262;28;20028;-73
2022/03/31 12:58:02;;;;;;;10.50;2.42;;;16.90;81.40;;;;;;5088309;27;20114;-74
2022/03/31 13:37:41;;;;;;;16.95;2.90;;;16.90;78.10;;;;;;5127744;27;20096;-73
2022/03/31 13:40:11;;;;;;;11.27;2.75;;;16.80;78.20;;;;;;5133259;27;20808;-73
2022/03/31 13:42:39;;;;;;;12.35;3.35;;;16.80;77.70;;;;;;5115249;27;20357;-73
2022/03/31 13:45:11;;;;;;;13.07;3.20;;;16.90;78.00;;;;;;5115457;27;20485;-73
2022/03/31 13:47:45;;;;;;;20.50;4.30;;;16.90;77.00;;;;;;5115475;27;20050;-74
2022/03/31 13:50:13;;;;;;;15.32;3.25;;;17.00;77.90;;;;;;5121152;27;20058;-73
2022/03/31 13:52:40;;;;;;;15.02;3.15;;;16.90;78.10;;;;;;5112881;28;20096;-74
2022/03/31 13:55:09;;;;;;;16.83;2.97;;;16.90;77.90;;;;;;5111728;28;20027;-73
2022/03/31 14:03:07;;;;;;;17.48;3.30;;;16.90;79.30;;;;;;5117435;27;20112;-73
2022/03/31 14:05:34;;;;;;;15.27;2.47;;;16.90;78.80;;;;;;5133083;27;20380;-73
2022/03/31 14:08:03;;;;;;;14.88;3.03;;;16.80;80.30;;;;;;5133141;27;20035;-73
2022/03/31 14:10:30;;;;;;;22.30;3.08;;;16.80;81.70;;;;;;5114971;27;20027;-74
2022/03/31 14:12:57;;;;;;;16.40;2.95;;;16.70;81.90;;;;;;5123473;27;20062;-74
2022/03/31 14:15:24;;;;;;;16.73;3.10;;;16.70;81.80;;;;;;5112174;27;20032;-74
2022/03/31 14:17:57;;;;;;;20.15;3.50;;;16.70;81.80;;;;;;5127206;27;20107;-74
2022/03/31 14:20:25;;;;;;;15.10;2.92;;;16.60;81.90;;;;;;5129294;27;20555;-74
2022/03/31 14:22:52;;;;;;;17.48;3.10;;;16.60;82.40;;;;;;5112194;28;20090;-74
2022/03/31 14:25:20;;;;;;;17.42;3.15;;;16.50;83.50;;;;;;5112351;28;20047;-73
2022/03/31 14:27:48;;;;;;;17.30;3.42;;;16.40;84.90;;;;;;5111918;28;20085;-70
2022/03/31 14:30:15;;;;;;;18.25;3.10;;;16.20;86.80;;;;;;5111602;27;20414;-73
2022/03/31 14:32:44;;;;;;;13.38;2.55;;;15.90;87.40;;;;;;5111802;27;20134;-73
2022/03/31 14:35:11;;;;;;;16.38;3.10;;;15.80;88.90;;;;;;5120693;27;20119;-73
2022/03/31 14:37:38;;;;;;;18.95;2.85;;;15.70;88.90;;;;;;5112570;27;20071;-73
2022/03/31 14:40:06;;;;;;;20.42;3.35;;;15.70;89.50;;;;;;5125402;27;20058;-73
2022/03/31 14:42:33;;;;;;;23.27;4.50;;;15.60;90.20;;;;;;5113885;27;20092;-74
2022/03/31 14:45:01;;;;;;;23.48;3.65;;;15.50;90.40;;;;;;5114158;27;20023;-74
2022/03/31 14:47:31;;;;;;;16.42;3.08;;;15.50;90.50;;;;;;5124826;27;20139;-74
2022/03/31 14:49:58;;;;;;;25.60;3.13;;;15.50;90.40;;;;;;5111823;27;20031;-74
2022/03/31 14:52:25;;;;;;;14.02;3.20;;;15.60;90.10;;;;;;5110552;28;20059;-74
2022/03/31 14:54:53;;;;;;;22.30;3.47;;;15.60;90.20;;;;;;5110793;28;20061;-74
2022/03/31 14:57:20;;;;;;;17.50;2.63;;;15.60;89.40;;;;;;5116819;27;20038;-73
2022/03/31 14:59:48;;;;;;;15.70;3.00;;;15.60;89.60;;;;;;5131997;27;20023;-74
2022/03/31 15:02:15;;;;;;;16.15;2.70;;;15.60;90.10;;;;;;5113957;27;20035;-74